createdAt,value
2018-02-10T00:01:59.808Z,30.07
2018-02-10T00:04:28.075Z,30.50
2018-02-10T00:06:56.587Z,28.63
2018-02-10T00:09:25.103Z,30.70
2018-02-10T00:11:53.681Z,31.33
2018-02-10T00:14:22.057Z,30.00
2018-02-10T00:16:50.280Z,31.47
2018-02-10T00:19:18.567Z,34.83
2018-02-10T00:21:46.824Z,30.93
2018-02-10T00:24:15.102Z,34.00
2018-02-10T00:26:43.324Z,31.83
2018-02-10T00:29:12.378Z,32.23
2018-02-10T00:31:40.862Z,32.53
2018-02-10T00:34:09.176Z,32.20
2018-02-10T00:36:38.140Z,33.40
2018-02-10T00:39:06.684Z,33.73
2018-02-10T00:41:34.925Z,34.33
2018-02-10T00:44:03.913Z,34.87
2018-02-10T00:46:32.269Z,32.43
2018-02-10T00:49:00.540Z,34.07
2018-02-10T00:51:28.776Z,31.40
2018-02-10T00:53:57.236Z,31.13
2018-02-10T00:56:25.440Z,32.50
2018-02-10T00:58:53.669Z,33.73
2018-02-10T01:01:21.974Z,30.57
2018-02-10T01:03:50.221Z,30.93
2018-02-10T01:06:18.451Z,34.53
2018-02-10T01:08:46.812Z,35.77
2018-02-10T01:11:15.053Z,32.17
2018-02-10T01:13:43.276Z,32.13
2018-02-10T01:16:11.548Z,32.97
2018-02-10T01:18:39.726Z,36.47
2018-02-10T01:21:08.056Z,32.27
2018-02-10T01:23:37.835Z,33.83
2018-02-10T01:26:06.037Z,31.27
2018-02-10T01:28:34.242Z,36.67
2018-02-10T01:31:02.525Z,33.90
2018-02-10T01:33:30.684Z,33.27
2018-02-10T01:35:59.860Z,32.47
2018-02-10T01:38:28.160Z,36.27
2018-02-10T01:40:57.198Z,32.67
2018-02-10T01:43:25.398Z,33.60
2018-02-10T01:45:53.707Z,34.83
2018-02-10T01:48:22.690Z,35.27
2018-02-10T01:50:51.680Z,36.43
2018-02-10T01:53:20.696Z,35.80
2018-02-10T01:55:48.956Z,37.50
2018-02-10T01:58:18.068Z,37.63
2018-02-10T02:00:46.332Z,36.73
2018-02-10T02:03:15.581Z,39.80
2018-02-10T02:05:43.794Z,38.73
2018-02-10T02:08:12.052Z,38.17
2018-02-10T02:10:41.591Z,39.63
2018-02-10T02:13:10.573Z,39.30
2018-02-10T02:15:39.672Z,40.13
2018-02-10T02:18:08.656Z,41.17
2018-02-10T02:20:37.626Z,34.23
2018-02-10T02:23:05.962Z,40.27
2018-02-10T02:25:34.201Z,37.63
2018-02-10T02:28:02.385Z,34.93
2018-02-10T02:30:32.612Z,41.60
2018-02-10T02:33:01.674Z,36.17
2018-02-10T02:35:29.860Z,40.57
2018-02-10T02:37:58.096Z,41.00
2018-02-10T02:40:26.316Z,37.47
2018-02-10T02:42:54.537Z,39.10
2018-02-10T02:45:22.788Z,41.57
2018-02-10T02:47:51.789Z,39.30
2018-02-10T02:50:20.048Z,37.90
2018-02-10T02:52:49.079Z,42.60
2018-02-10T02:55:17.364Z,39.30
2018-02-10T02:57:45.612Z,38.57
2018-02-10T03:00:13.840Z,41.97
2018-02-10T03:02:42.070Z,41.70
2018-02-10T03:05:10.586Z,42.33
2018-02-10T03:07:38.790Z,44.23
2018-02-10T03:10:06.988Z,43.23
2018-02-10T03:12:37.572Z,42.70
2018-02-10T03:15:05.840Z,42.20
2018-02-10T03:17:34.068Z,44.30
2018-02-10T03:20:02.292Z,42.77
2018-02-10T03:22:30.505Z,44.33
2018-02-10T03:24:59.469Z,43.13
2018-02-10T03:27:27.660Z,42.00
2018-02-10T03:29:56.644Z,42.77
2018-02-10T03:32:24.844Z,39.80
2018-02-10T03:34:53.808Z,41.10
2018-02-10T03:37:22.035Z,41.90
2018-02-10T03:39:50.260Z,38.57
2018-02-10T03:42:18.524Z,42.03
2018-02-10T03:44:46.760Z,43.07
2018-02-10T03:47:14.971Z,39.50
2018-02-10T03:49:43.358Z,41.27
2018-02-10T03:52:11.781Z,41.53
2018-02-10T03:54:40.744Z,41.63
2018-02-10T03:57:08.936Z,41.37
2018-02-10T03:59:38.000Z,42.90
2018-02-10T04:02:06.203Z,41.30
2018-02-10T04:04:35.170Z,42.53
2018-02-10T04:07:04.192Z,39.93
2018-02-10T04:09:33.240Z,38.50
2018-02-10T04:12:01.428Z,39.27
2018-02-10T04:14:30.935Z,39.53
2018-02-10T04:16:59.127Z,39.07
2018-02-10T04:19:27.366Z,39.90
2018-02-10T04:21:56.344Z,39.60
2018-02-10T04:24:24.552Z,38.50
2018-02-10T04:26:52.754Z,39.80
2018-02-10T04:29:21.757Z,41.83
2018-02-10T04:31:50.740Z,40.33
2018-02-10T04:34:19.874Z,38.17
2018-02-10T04:36:48.096Z,42.13
2018-02-10T04:39:16.296Z,40.53
2018-02-10T04:41:45.385Z,39.67
2018-02-10T04:44:13.819Z,39.70
2018-02-10T04:46:41.992Z,42.37
2018-02-10T04:49:10.313Z,41.47
2018-02-10T04:51:38.492Z,46.57
2018-02-10T04:54:07.465Z,46.27
2018-02-10T04:56:35.713Z,45.00
2018-02-10T04:59:04.037Z,44.03
2018-02-10T05:01:33.026Z,44.53
2018-02-10T05:04:02.012Z,40.33
2018-02-10T05:06:30.275Z,43.20
2018-02-10T05:08:58.504Z,44.17
2018-02-10T05:11:26.838Z,44.87
2018-02-10T05:13:55.100Z,44.20
2018-02-10T05:16:24.644Z,42.33
2018-02-10T05:18:52.871Z,46.03
2018-02-10T05:21:21.113Z,44.13
2018-02-10T05:23:50.069Z,42.63
2018-02-10T05:26:18.424Z,44.43
2018-02-10T05:28:46.988Z,41.80
2018-02-10T05:31:15.402Z,45.13
2018-02-10T05:33:43.745Z,42.13
2018-02-10T05:36:12.118Z,41.87
2018-02-10T05:38:40.346Z,40.57
2018-02-10T05:41:09.312Z,38.23
2018-02-10T05:43:37.573Z,41.47
2018-02-10T05:46:05.762Z,45.20
2018-02-10T05:48:33.957Z,42.80
2018-02-10T05:51:02.209Z,40.00
2018-02-10T05:53:30.433Z,41.20
2018-02-10T05:55:58.656Z,40.20
2018-02-10T05:58:26.891Z,43.57
2018-02-10T06:00:55.100Z,44.67
2018-02-10T06:03:23.341Z,42.50
2018-02-10T06:05:51.588Z,42.33
2018-02-10T06:08:20.573Z,39.97
2018-02-10T06:10:48.903Z,38.23
2018-02-10T06:13:17.383Z,43.90
2018-02-10T06:15:45.676Z,43.40
2018-02-10T06:18:13.916Z,39.97
2018-02-10T06:20:42.203Z,44.07
2018-02-10T06:23:10.400Z,40.83
2018-02-10T06:25:38.609Z,42.53
2018-02-10T06:28:06.834Z,38.93
2018-02-10T06:30:35.038Z,43.10
2018-02-10T06:33:03.256Z,38.50
2018-02-10T06:35:32.350Z,40.20
2018-02-10T06:38:01.381Z,43.73
2018-02-10T06:40:29.599Z,40.90
2018-02-10T06:42:57.852Z,40.67
2018-02-10T06:45:26.084Z,41.77
2018-02-10T06:47:54.288Z,38.57
2018-02-10T06:50:22.594Z,42.40
2018-02-10T06:52:50.841Z,45.40
2018-02-10T06:55:19.090Z,40.60
2018-02-10T06:57:47.313Z,41.13
2018-02-10T07:00:15.535Z,39.57
2018-02-10T07:02:43.760Z,42.10
2018-02-10T07:05:12.021Z,41.60
2018-02-10T07:07:40.245Z,41.17
2018-02-10T07:10:09.223Z,40.90
2018-02-10T07:12:37.468Z,43.77
2018-02-10T07:15:05.704Z,41.77
2018-02-10T07:17:33.921Z,41.37
2018-02-10T07:20:02.556Z,40.77
2018-02-10T07:22:31.576Z,42.10
2018-02-10T07:24:59.760Z,42.70
2018-02-10T07:27:28.048Z,46.03
2018-02-10T07:29:57.063Z,43.50
2018-02-10T07:32:25.271Z,41.13
2018-02-10T07:34:54.279Z,45.53
2018-02-10T07:37:22.522Z,44.03
2018-02-10T07:39:51.207Z,45.60
2018-02-10T07:42:20.046Z,47.37
2018-02-10T07:44:48.425Z,48.67
2018-02-10T07:47:16.614Z,47.97
2018-02-10T07:49:44.840Z,43.77
2018-02-10T07:52:13.815Z,46.80
2018-02-10T07:54:42.159Z,43.43
2018-02-10T07:57:10.384Z,47.53
2018-02-10T07:59:39.345Z,49.43
2018-02-10T08:02:07.576Z,49.73
2018-02-10T08:04:35.858Z,45.80
2018-02-10T08:07:04.209Z,47.73
2018-02-10T08:09:32.358Z,49.60
2018-02-10T08:12:00.628Z,47.73
2018-02-10T08:14:28.807Z,49.23
2018-02-10T08:16:57.185Z,47.60
2018-02-10T08:19:25.481Z,47.60
2018-02-10T08:21:54.454Z,48.10
2018-02-10T08:24:22.730Z,47.20
2018-02-10T08:26:51.057Z,44.63
2018-02-10T08:29:19.946Z,45.67
2018-02-10T08:31:48.172Z,44.53
2018-02-10T08:34:16.403Z,43.77
2018-02-10T08:36:44.671Z,43.67
2018-02-10T08:39:13.256Z,45.47
2018-02-10T08:41:41.436Z,49.27
2018-02-10T08:44:09.663Z,44.77
2018-02-10T08:46:37.858Z,46.87
2018-02-10T08:49:06.934Z,47.80
2018-02-10T08:51:35.177Z,48.13
2018-02-10T08:54:03.777Z,49.07
2018-02-10T08:56:31.962Z,44.33
2018-02-10T08:59:00.176Z,45.30
2018-02-10T09:01:28.669Z,49.90
2018-02-10T09:03:56.928Z,45.43
2018-02-10T09:06:25.119Z,44.57
2018-02-10T09:08:53.332Z,48.87
2018-02-10T09:11:21.580Z,45.07
2018-02-10T09:13:49.789Z,49.80
2018-02-10T09:16:18.072Z,43.57
2018-02-10T09:18:46.292Z,46.33
2018-02-10T09:21:14.697Z,52.47
2018-02-10T09:23:43.170Z,51.33
2018-02-10T09:26:11.892Z,49.57
2018-02-10T09:28:40.285Z,48.17
2018-02-10T09:31:08.492Z,46.73
2018-02-10T09:33:36.808Z,48.00
2018-02-10T09:36:05.036Z,48.47
2018-02-10T09:38:33.256Z,52.60
2018-02-10T09:41:01.489Z,45.13
2018-02-10T09:43:29.772Z,49.60
2018-02-10T09:45:57.965Z,50.47
2018-02-10T09:48:26.187Z,46.47
2018-02-10T09:50:54.385Z,49.33
2018-02-10T09:53:35.122Z,51.20
2018-02-10T09:56:03.340Z,45.90
2018-02-10T09:58:31.604Z,52.00
2018-02-10T10:00:59.880Z,50.63
2018-02-10T10:03:28.081Z,45.83
2018-02-10T10:05:56.324Z,47.83
2018-02-10T10:08:29.229Z,52.43
2018-02-10T10:10:57.429Z,46.90
2018-02-10T10:13:25.657Z,50.37
2018-02-10T10:15:55.284Z,48.00
2018-02-10T10:18:23.524Z,48.80
2018-02-10T10:20:51.789Z,48.00
2018-02-10T10:23:20.022Z,52.80
2018-02-10T10:25:48.288Z,53.30
2018-02-10T10:28:16.599Z,54.83
2018-02-10T10:30:44.824Z,50.00
2018-02-10T10:33:13.067Z,50.53
2018-02-10T10:35:45.616Z,47.97
2018-02-10T10:38:15.543Z,50.90
2018-02-10T10:40:43.786Z,53.27
2018-02-10T10:43:12.036Z,52.23
2018-02-10T10:45:41.112Z,44.00
2018-02-10T10:48:09.333Z,53.43
2018-02-10T10:50:38.320Z,53.80
2018-02-10T10:53:06.545Z,53.23
2018-02-10T10:55:34.753Z,51.50
2018-02-10T10:58:03.768Z,52.30
2018-02-10T11:00:32.076Z,49.30
2018-02-10T11:03:00.290Z,51.90
2018-02-10T11:05:28.487Z,52.20
2018-02-10T11:07:56.747Z,47.20
2018-02-10T11:10:25.740Z,49.83
2018-02-10T11:12:54.752Z,56.07
2018-02-10T11:15:23.385Z,53.10
2018-02-10T11:17:52.459Z,54.67
2018-02-10T11:20:21.210Z,55.33
2018-02-10T11:22:50.723Z,55.27
2018-02-10T11:25:19.016Z,52.47
2018-02-10T11:27:47.301Z,51.43
2018-02-10T11:30:16.721Z,52.77
2018-02-10T11:32:44.940Z,57.97
2018-02-10T11:35:14.128Z,59.73
2018-02-10T11:37:44.731Z,56.80
2018-02-10T11:40:13.765Z,50.80
2018-02-10T11:42:42.010Z,55.13
2018-02-10T11:47:35.217Z,54.97
2018-02-10T11:50:04.190Z,56.90
2018-02-10T11:52:33.563Z,54.07
2018-02-10T11:55:01.767Z,55.80
2018-02-10T11:57:29.993Z,55.13
2018-02-10T11:59:58.196Z,57.00
2018-02-10T12:02:26.430Z,56.67
2018-02-10T12:04:54.648Z,54.67
2018-02-10T12:07:22.877Z,53.30
2018-02-10T12:09:51.932Z,53.97
2018-02-10T12:12:20.157Z,57.03
2018-02-10T12:14:48.645Z,58.77
2018-02-10T12:17:17.760Z,58.43
2018-02-10T12:19:46.083Z,53.63
2018-02-10T12:22:14.274Z,52.50
2018-02-10T12:24:43.282Z,55.03
2018-02-10T12:27:11.655Z,52.50
2018-02-10T12:29:40.949Z,50.50
2018-02-10T12:32:09.542Z,55.43
2018-02-10T12:34:37.807Z,58.17
2018-02-10T12:37:06.128Z,53.13
2018-02-10T12:39:34.434Z,54.43
2018-02-10T12:42:02.671Z,56.07
2018-02-10T12:44:30.905Z,54.40
2018-02-10T12:46:59.148Z,56.53
2018-02-10T12:49:30.395Z,51.40
2018-02-10T12:51:58.585Z,51.60
2018-02-10T12:54:27.379Z,51.63
2018-02-10T12:56:55.658Z,53.00
2018-02-10T12:59:23.852Z,53.27
2018-02-10T13:01:53.042Z,56.50
2018-02-10T13:04:21.306Z,52.00
2018-02-10T13:06:49.566Z,53.87
2018-02-10T13:09:17.862Z,56.70
2018-02-10T13:11:46.064Z,58.23
2018-02-10T13:14:14.332Z,53.77
2018-02-10T13:16:43.376Z,56.47
2018-02-10T13:19:11.608Z,57.30
2018-02-10T13:21:39.854Z,55.13
2018-02-10T13:24:08.136Z,56.13
2018-02-10T13:26:36.408Z,53.60
2018-02-10T13:29:04.608Z,54.30
2018-02-10T13:31:34.899Z,55.07
2018-02-10T13:34:03.085Z,49.73
2018-02-10T13:36:31.280Z,54.27
2018-02-10T13:39:00.357Z,55.57
2018-02-10T13:41:28.568Z,57.37
2018-02-10T13:43:56.817Z,56.13
2018-02-10T13:46:25.336Z,47.57
2018-02-10T13:48:53.576Z,54.83
2018-02-10T13:51:22.572Z,50.97
2018-02-10T13:53:51.540Z,54.03
2018-02-10T13:56:19.785Z,53.73
2018-02-10T13:58:47.996Z,51.97
2018-02-10T14:01:16.308Z,54.20
2018-02-10T14:03:45.317Z,53.07
2018-02-10T14:06:13.602Z,51.47
2018-02-10T14:08:41.903Z,56.30
2018-02-10T14:11:10.130Z,50.97
2018-02-10T14:13:39.141Z,52.20
2018-02-10T14:16:08.178Z,51.97
2018-02-10T14:18:36.472Z,50.10
2018-02-10T14:21:05.521Z,48.30
2018-02-10T14:23:33.852Z,50.67
2018-02-10T14:26:02.372Z,49.60
2018-02-10T14:28:31.452Z,49.07
2018-02-10T14:30:59.777Z,45.10
2018-02-10T14:33:27.972Z,47.97
2018-02-10T14:35:56.203Z,47.30
2018-02-10T14:38:24.473Z,44.47
2018-02-10T14:40:52.796Z,47.23
2018-02-10T14:43:21.170Z,46.70
2018-02-10T14:45:49.439Z,44.07
2018-02-10T14:48:18.584Z,42.77
2018-02-10T14:50:47.600Z,48.33
2018-02-10T14:53:15.897Z,46.17
2018-02-10T14:55:44.145Z,48.20
2018-02-10T14:58:12.344Z,48.97
2018-02-10T15:00:41.366Z,48.30
2018-02-10T15:03:09.593Z,47.17
2018-02-10T15:05:37.796Z,46.20
2018-02-10T15:08:06.062Z,49.40
2018-02-10T15:10:34.260Z,45.67
2018-02-10T15:13:02.610Z,50.20
2018-02-10T15:15:30.945Z,50.67
2018-02-10T15:17:59.158Z,47.87
2018-02-10T15:20:27.504Z,50.10
2018-02-10T15:22:56.544Z,49.93
2018-02-10T15:25:24.840Z,48.50
2018-02-10T15:27:53.900Z,47.30
2018-02-10T15:30:33.937Z,49.53
2018-02-10T15:33:14.059Z,48.93
2018-02-10T15:35:43.477Z,46.83
2018-02-10T15:38:11.842Z,51.47
2018-02-10T15:40:40.045Z,49.97
2018-02-10T15:43:08.337Z,47.87
2018-02-10T15:45:36.636Z,50.37
2018-02-10T15:48:04.841Z,47.83
2018-02-10T15:50:33.131Z,46.67
2018-02-10T15:53:01.336Z,48.70
2018-02-10T15:55:29.529Z,49.17
2018-02-10T15:57:57.773Z,50.27
2018-02-10T16:00:26.609Z,48.83
2018-02-10T16:02:54.864Z,49.90
2018-02-10T16:05:23.132Z,48.07
2018-02-10T16:07:51.355Z,51.40
2018-02-10T16:10:19.569Z,51.10
2018-02-10T16:12:48.608Z,49.83
2018-02-10T16:15:16.883Z,51.17
2018-02-10T16:17:45.139Z,48.17
2018-02-10T16:20:13.613Z,53.07
2018-02-10T16:22:41.861Z,53.37
2018-02-10T16:25:10.822Z,47.57
2018-02-10T16:27:39.166Z,51.57
2018-02-10T16:30:07.344Z,50.63
2018-02-10T16:32:35.733Z,49.57
2018-02-10T16:35:04.000Z,47.93
2018-02-10T16:37:32.701Z,45.20
2018-02-10T16:40:01.211Z,50.40
2018-02-10T16:42:29.488Z,51.33
2018-02-10T16:44:57.797Z,47.80
2018-02-10T16:47:26.328Z,49.63
2018-02-10T16:49:54.575Z,50.13
2018-02-10T16:52:22.824Z,46.90
2018-02-10T16:54:51.116Z,44.17
2018-02-10T16:57:19.403Z,51.07
2018-02-10T16:59:48.194Z,50.37
2018-02-10T17:02:16.452Z,47.17
2018-02-10T17:04:44.750Z,44.67
2018-02-10T17:07:12.988Z,44.13
2018-02-10T17:09:41.981Z,40.93
2018-02-10T17:12:11.004Z,42.70
2018-02-10T17:14:39.192Z,44.00
2018-02-10T17:17:07.448Z,40.30
2018-02-10T17:19:35.817Z,43.00
2018-02-10T17:22:04.020Z,41.40
2018-02-10T17:24:32.276Z,44.17
2018-02-10T17:27:01.878Z,40.23
2018-02-10T17:29:30.152Z,41.73
2018-02-10T17:31:58.524Z,38.97
2018-02-10T17:34:26.853Z,41.87
2018-02-10T17:36:55.070Z,41.57
2018-02-10T17:39:24.076Z,41.63
2018-02-10T17:41:52.377Z,36.13
2018-02-10T17:44:20.576Z,40.07
2018-02-10T17:46:48.884Z,39.23
2018-02-10T17:49:17.175Z,40.10
2018-02-10T17:51:46.169Z,42.30
2018-02-10T17:54:15.179Z,41.37
2018-02-10T17:56:43.558Z,39.77
2018-02-10T17:59:11.763Z,41.23
2018-02-10T18:01:40.031Z,38.93
2018-02-10T18:04:08.300Z,42.63
2018-02-10T18:06:36.539Z,41.67
2018-02-10T18:09:04.716Z,40.53
2018-02-10T18:11:33.729Z,43.53
2018-02-10T18:14:01.930Z,41.37
2018-02-10T18:16:30.154Z,43.40
2018-02-10T18:18:58.384Z,41.13
2018-02-10T18:21:26.660Z,43.03
2018-02-10T18:23:54.895Z,39.30
2018-02-10T18:26:23.923Z,41.40
2018-02-10T18:28:52.141Z,42.43
2018-02-10T18:31:20.539Z,43.53
2018-02-10T18:33:49.605Z,41.03
2018-02-10T18:36:17.804Z,42.27
2018-02-10T18:38:46.840Z,38.83
2018-02-10T18:41:16.931Z,43.23
2018-02-10T18:43:45.100Z,42.13
2018-02-10T18:46:14.124Z,41.97
2018-02-10T18:48:42.352Z,43.73
2018-02-10T18:51:11.356Z,43.73
2018-02-10T18:53:40.333Z,43.43
2018-02-10T18:56:08.551Z,44.87
2018-02-10T18:58:36.773Z,43.37
2018-02-10T19:01:04.975Z,43.63
2018-02-10T19:03:33.293Z,40.30
2018-02-10T19:06:01.508Z,39.90
2018-02-10T19:08:29.804Z,43.13
2018-02-10T19:10:59.003Z,43.70
2018-02-10T19:13:27.349Z,39.00
2018-02-10T19:15:55.637Z,40.77
2018-02-10T19:18:23.928Z,42.43
2018-02-10T19:20:52.928Z,44.93
2018-02-10T19:23:21.952Z,45.07
2018-02-10T19:25:50.192Z,44.17
2018-02-10T19:28:19.241Z,40.47
2018-02-10T19:30:47.408Z,42.23
2018-02-10T19:33:15.728Z,45.70
2018-02-10T19:35:44.055Z,43.70
2018-02-10T19:38:12.323Z,45.30
2018-02-10T19:40:40.700Z,43.60
2018-02-10T19:43:08.903Z,42.30
2018-02-10T19:45:37.112Z,41.57
2018-02-10T19:48:05.510Z,41.87
2018-02-10T19:50:34.499Z,48.03
2018-02-10T19:53:02.689Z,41.67
2018-02-10T19:55:30.971Z,42.80
2018-02-10T19:57:59.318Z,46.27
2018-02-10T20:00:27.512Z,48.33
2018-02-10T20:02:56.570Z,46.23
2018-02-10T20:05:24.833Z,45.97
2018-02-10T20:07:53.872Z,45.30
2018-02-10T20:10:22.972Z,43.47
2018-02-10T20:12:52.028Z,46.93
2018-02-10T20:15:20.395Z,45.70
2018-02-10T20:17:49.227Z,45.20
2018-02-10T20:20:17.601Z,46.60
2018-02-10T20:22:45.853Z,42.00
2018-02-10T20:25:14.076Z,41.10
2018-02-10T20:27:42.296Z,40.63
2018-02-10T20:30:10.508Z,42.97
2018-02-10T20:32:39.568Z,44.53
2018-02-10T20:35:07.817Z,43.87
2018-02-10T20:37:36.251Z,39.53
2018-02-10T20:40:05.371Z,41.43
2018-02-10T20:42:33.528Z,39.50
2018-02-10T20:45:01.785Z,40.77
2018-02-10T20:47:30.218Z,39.43
2018-02-10T20:49:59.156Z,35.53
2018-02-10T20:52:27.630Z,41.10
2018-02-10T20:54:55.900Z,38.17
2018-02-10T20:57:24.127Z,37.17
2018-02-10T20:59:53.510Z,38.23
2018-02-10T21:02:21.857Z,37.23
2018-02-10T21:04:50.140Z,37.33
2018-02-10T21:07:18.501Z,37.80
2018-02-10T21:09:46.752Z,40.57
2018-02-10T21:12:14.960Z,36.30
2018-02-10T21:14:43.300Z,35.20
2018-02-10T21:17:11.588Z,35.27
2018-02-10T21:19:39.799Z,33.13
2018-02-10T21:22:08.102Z,33.60
2018-02-10T21:24:36.486Z,32.70
2018-02-10T21:27:04.756Z,32.93
2018-02-10T21:29:33.264Z,34.43
2018-02-10T21:32:01.498Z,35.27
2018-02-10T21:34:29.810Z,28.90
2018-02-10T21:37:00.369Z,33.33
2018-02-10T21:39:29.240Z,31.30
2018-02-10T21:41:57.527Z,30.67
2018-02-10T21:44:26.275Z,32.60
2018-02-10T21:46:55.365Z,31.87
2018-02-10T21:49:23.625Z,33.13
2018-02-10T21:51:52.046Z,31.57
2018-02-10T21:54:21.207Z,34.13
2018-02-10T21:56:49.399Z,34.20
2018-02-10T21:59:18.450Z,34.33
2018-02-10T22:01:46.768Z,34.13
2018-02-10T22:04:15.732Z,32.57
2018-02-10T22:06:43.992Z,33.53
2018-02-10T22:09:12.279Z,33.40
2018-02-10T22:11:40.480Z,31.33
2018-02-10T22:14:08.836Z,29.07
2018-02-10T22:16:37.051Z,35.03
2018-02-10T22:19:06.063Z,33.80
2018-02-10T22:21:34.462Z,28.83
2018-02-10T22:24:02.894Z,35.30
2018-02-10T22:26:31.116Z,35.43
2018-02-10T22:28:59.473Z,33.90
2018-02-10T22:31:27.782Z,32.70
2018-02-10T22:33:56.088Z,33.30
2018-02-10T22:36:24.314Z,30.83
2018-02-10T22:38:52.798Z,34.07
2018-02-10T22:41:21.044Z,36.23
2018-02-10T22:43:50.066Z,33.93
2018-02-10T22:46:18.410Z,35.90
2018-02-10T22:48:47.403Z,34.17
2018-02-10T22:51:15.732Z,34.87
2018-02-10T22:53:45.425Z,30.60
2018-02-10T22:56:13.822Z,28.83
2018-02-10T22:58:42.269Z,29.03
2018-02-10T23:01:17.111Z,31.13
2018-02-10T23:03:45.667Z,32.77
2018-02-10T23:06:13.934Z,33.83
2018-02-10T23:08:42.249Z,27.23
2018-02-10T23:11:10.574Z,32.17
2018-02-10T23:13:38.802Z,31.47
2018-02-10T23:16:07.028Z,31.93
2018-02-10T23:18:36.030Z,31.03
2018-02-10T23:21:04.272Z,30.90
2018-02-10T23:23:32.479Z,31.17
2018-02-10T23:26:00.693Z,30.13
2018-02-10T23:28:28.886Z,28.97
2018-02-10T23:30:57.168Z,29.27
2018-02-10T23:33:25.548Z,29.93
2018-02-10T23:35:53.740Z,28.13
2018-02-10T23:38:23.108Z,28.23
2018-02-10T23:40:51.379Z,28.57
2018-02-10T23:43:19.764Z,29.77
2018-02-10T23:45:47.980Z,26.73
2018-02-10T23:48:16.176Z,29.90
2018-02-10T23:50:45.201Z,26.37
2018-02-10T23:53:13.464Z,26.97
2018-02-10T23:55:42.462Z,28.47
2018-02-10T23:58:10.664Z,28.60
